sensor_id;sensor_type;location;lat;lon;timestamp;temperature;humidity
54431;DHT22;40342;52.998;5.862;2022-08-21T00:01:54;16.50;99.90
54431;DHT22;40342;52.998;5.862;2022-08-21T00:04:20;16.40;99.90
54431;DHT22;40342;52.998;5.862;2022-08-21T00:06:46;16.40;99.90
54431;DHT22;40342;52.998;5.862;2022-08-21T00:09:12;16.30;99.90
54431;DHT22;40342;52.998;5.862;2022-08-21T00:11:38;16.20;99.90
54431;DHT22;40342;52.998;5.862;2022-08-21T00:14:06;16.20;99.90
54431;DHT22;40342;52.998;5.862;2022-08-21T00:16:32;16.20;99.90
54431;DHT22;40342;52.998;5.862;2022-08-21T00:18:57;16.10;99.90
54431;DHT22;40342;52.998;5.862;2022-08-21T00:21:23;16.10;99.90
54431;DHT22;40342;52.998;5.862;2022-08-21T00:23:50;16.10;99.90
54431;DHT22;40342;52.998;5.862;2022-08-21T00:26:16;16.00;99.90
54431;DHT22;40342;52.998;5.862;2022-08-21T00:28:42;15.90;99.90
54431;DHT22;40342;52.998;5.862;2022-08-21T00:31:08;15.90;99.90
54431;DHT22;40342;52.998;5.862;2022-08-21T00:33:33;15.90;99.90
54431;DHT22;40342;52.998;5.862;2022-08-21T00:36:00;15.90;99.90
54431;DHT22;40342;52.998;5.862;2022-08-21T00:38:26;15.90;99.90
54431;DHT22;40342;52.998;5.862;2022-08-21T00:40:55;16.00;99.90
54431;DHT22;40342;52.998;5.862;2022-08-21T00:43:25;15.90;99.90
54431;DHT22;40342;52.998;5.862;2022-08-21T00:45:51;16.00;99.90
54431;DHT22;40342;52.998;5.862;2022-08-21T00:48:16;16.00;99.90
54431;DHT22;40342;52.998;5.862;2022-08-21T00:50:48;16.00;99.90
54431;DHT22;40342;52.998;5.862;2022-08-21T00:53:16;16.00;99.90
54431;DHT22;40342;52.998;5.862;2022-08-21T00:55:43;16.10;99.90
54431;DHT22;40342;52.998;5.862;2022-08-21T00:58:11;16.00;99.90
54431;DHT22;40342;52.998;5.862;2022-08-21T01:00:40;16.10;99.90
54431;DHT22;40342;52.998;5.862;2022-08-21T01:03:11;16.10;99.90
54431;DHT22;40342;52.998;5.862;2022-08-21T01:05:37;16.10;99.90
54431;DHT22;40342;52.998;5.862;2022-08-21T01:08:04;16.10;99.90
54431;DHT22;40342;52.998;5.862;2022-08-21T01:10:31;16.10;99.90
54431;DHT22;40342;52.998;5.862;2022-08-21T01:12:57;16.10;99.90
54431;DHT22;40342;52.998;5.862;2022-08-21T01:15:27;16.10;99.90
54431;DHT22;40342;52.998;5.862;2022-08-21T01:17:54;16.10;99.90
54431;DHT22;40342;52.998;5.862;2022-08-21T01:20:20;16.10;99.90
54431;DHT22;40342;52.998;5.862;2022-08-21T01:22:45;16.10;99.90
54431;DHT22;40342;52.998;5.862;2022-08-21T01:25:13;16.10;99.90
54431;DHT22;40342;52.998;5.862;2022-08-21T01:27:40;16.00;99.90
54431;DHT22;40342;52.998;5.862;2022-08-21T01:30:12;16.10;99.90
54431;DHT22;40342;52.998;5.862;2022-08-21T01:32:40;16.00;99.90
54431;DHT22;40342;52.998;5.862;2022-08-21T01:35:06;16.00;99.90
54431;DHT22;40342;52.998;5.862;2022-08-21T01:37:32;16.00;99.90
54431;DHT22;40342;52.998;5.862;2022-08-21T01:39:58;16.00;99.90
54431;DHT22;40342;52.998;5.862;2022-08-21T01:42:24;16.00;99.90
54431;DHT22;40342;52.998;5.862;2022-08-21T01:44:50;16.00;99.90
54431;DHT22;40342;52.998;5.862;2022-08-21T01:47:15;16.00;99.90
54431;DHT22;40342;52.998;5.862;2022-08-21T01:49:42;16.00;99.90
54431;DHT22;40342;52.998;5.862;2022-08-21T01:52:09;16.00;99.90
54431;DHT22;40342;52.998;5.862;2022-08-21T01:54:34;16.00;99.90
54431;DHT22;40342;52.998;5.862;2022-08-21T01:57:00;16.00;99.90
54431;DHT22;40342;52.998;5.862;2022-08-21T01:59:26;16.00;99.90
54431;DHT22;40342;52.998;5.862;2022-08-21T02:01:52;15.90;99.90
54431;DHT22;40342;52.998;5.862;2022-08-21T02:04:20;16.00;99.90
54431;DHT22;40342;52.998;5.862;2022-08-21T02:06:45;15.90;99.90
54431;DHT22;40342;52.998;5.862;2022-08-21T02:09:12;15.90;99.90
54431;DHT22;40342;52.998;5.862;2022-08-21T02:11:39;15.90;99.90
54431;DHT22;40342;52.998;5.862;2022-08-21T02:14:09;15.90;99.90
54431;DHT22;40342;52.998;5.862;2022-08-21T02:16:36;15.90;99.90
54431;DHT22;40342;52.998;5.862;2022-08-21T02:19:02;15.90;99.90
54431;DHT22;40342;52.998;5.862;2022-08-21T02:21:28;15.90;99.90
54431;DHT22;40342;52.998;5.862;2022-08-21T02:23:53;15.90;99.90
54431;DHT22;40342;52.998;5.862;2022-08-21T02:26:19;15.90;99.90
54431;DHT22;40342;52.998;5.862;2022-08-21T02:28:44;15.90;99.90
54431;DHT22;40342;52.998;5.862;2022-08-21T02:31:10;15.90;99.90
54431;DHT22;40342;52.998;5.862;2022-08-21T02:33:36;15.90;99.90
54431;DHT22;40342;52.998;5.862;2022-08-21T02:36:02;15.90;99.90
54431;DHT22;40342;52.998;5.862;2022-08-21T02:38:31;15.90;99.90
54431;DHT22;40342;52.998;5.862;2022-08-21T02:40:59;15.90;99.90
54431;DHT22;40342;52.998;5.862;2022-08-21T02:43:26;15.90;99.90
54431;DHT22;40342;52.998;5.862;2022-08-21T02:45:55;15.90;99.90
54431;DHT22;40342;52.998;5.862;2022-08-21T02:48:26;15.90;99.90
54431;DHT22;40342;52.998;5.862;2022-08-21T02:50:55;15.90;99.90
54431;DHT22;40342;52.998;5.862;2022-08-21T02:53:22;15.80;99.90
54431;DHT22;40342;52.998;5.862;2022-08-21T02:55:50;15.90;99.90
54431;DHT22;40342;52.998;5.862;2022-08-21T02:58:18;15.80;99.90
54431;DHT22;40342;52.998;5.862;2022-08-21T03:00:44;15.80;99.90
54431;DHT22;40342;52.998;5.862;2022-08-21T03:03:11;15.80;99.90
54431;DHT22;40342;52.998;5.862;2022-08-21T03:05:38;15.80;99.90
54431;DHT22;40342;52.998;5.862;2022-08-21T03:08:08;15.80;99.90
54431;DHT22;40342;52.998;5.862;2022-08-21T03:10:50;15.70;99.90
54431;DHT22;40342;52.998;5.862;2022-08-21T03:13:17;15.80;99.90
54431;DHT22;40342;52.998;5.862;2022-08-21T03:15:43;15.70;99.90
54431;DHT22;40342;52.998;5.862;2022-08-21T03:18:10;15.80;99.90
54431;DHT22;40342;52.998;5.862;2022-08-21T03:20:38;15.70;99.90
54431;DHT22;40342;52.998;5.862;2022-08-21T03:23:04;15.70;99.90
54431;DHT22;40342;52.998;5.862;2022-08-21T03:25:31;15.70;99.90
54431;DHT22;40342;52.998;5.862;2022-08-21T03:27:58;15.80;99.90
54431;DHT22;40342;52.998;5.862;2022-08-21T03:30:24;15.70;99.90
54431;DHT22;40342;52.998;5.862;2022-08-21T03:32:50;15.70;99.90
54431;DHT22;40342;52.998;5.862;2022-08-21T03:35:17;15.70;99.90
54431;DHT22;40342;52.998;5.862;2022-08-21T03:37:44;15.70;99.90
54431;DHT22;40342;52.998;5.862;2022-08-21T03:40:11;15.60;99.90
54431;DHT22;40342;52.998;5.862;2022-08-21T03:42:37;15.60;99.90
54431;DHT22;40342;52.998;5.862;2022-08-21T03:45:04;15.70;99.90
54431;DHT22;40342;52.998;5.862;2022-08-21T03:47:29;15.60;99.90
54431;DHT22;40342;52.998;5.862;2022-08-21T03:49:55;15.60;99.90
54431;DHT22;40342;52.998;5.862;2022-08-21T03:52:21;15.60;99.90
54431;DHT22;40342;52.998;5.862;2022-08-21T03:54:46;15.60;99.90
54431;DHT22;40342;52.998;5.862;2022-08-21T03:57:12;15.60;99.90
54431;DHT22;40342;52.998;5.862;2022-08-21T03:59:38;15.50;99.90
54431;DHT22;40342;52.998;5.862;2022-08-21T04:02:05;15.50;99.90
54431;DHT22;40342;52.998;5.862;2022-08-21T04:04:32;15.50;99.90
54431;DHT22;40342;52.998;5.862;2022-08-21T04:06:58;15.50;99.90
54431;DHT22;40342;52.998;5.862;2022-08-21T04:09:25;15.50;99.90
54431;DHT22;40342;52.998;5.862;2022-08-21T04:11:51;15.50;99.90
54431;DHT22;40342;52.998;5.862;2022-08-21T04:14:17;15.40;99.90
54431;DHT22;40342;52.998;5.862;2022-08-21T04:16:43;15.40;99.90
54431;DHT22;40342;52.998;5.862;2022-08-21T04:19:10;15.40;99.90
54431;DHT22;40342;52.998;5.862;2022-08-21T04:21:37;15.40;99.90
54431;DHT22;40342;52.998;5.862;2022-08-21T04:24:04;15.40;99.90
54431;DHT22;40342;52.998;5.862;2022-08-21T04:26:30;15.40;99.90
54431;DHT22;40342;52.998;5.862;2022-08-21T04:28:57;15.30;99.90
54431;DHT22;40342;52.998;5.862;2022-08-21T04:31:23;15.30;99.90
54431;DHT22;40342;52.998;5.862;2022-08-21T04:33:49;15.30;99.90
54431;DHT22;40342;52.998;5.862;2022-08-21T04:36:16;15.30;99.90
54431;DHT22;40342;52.998;5.862;2022-08-21T04:38:42;15.30;99.90
54431;DHT22;40342;52.998;5.862;2022-08-21T04:41:07;15.30;99.90
54431;DHT22;40342;52.998;5.862;2022-08-21T04:43:33;15.30;99.90
54431;DHT22;40342;52.998;5.862;2022-08-21T04:45:58;15.20;99.90
54431;DHT22;40342;52.998;5.862;2022-08-21T04:48:26;15.20;99.90
54431;DHT22;40342;52.998;5.862;2022-08-21T04:51:24;15.30;99.90
54431;DHT22;40342;52.998;5.862;2022-08-21T04:53:59;15.30;99.90
54431;DHT22;40342;52.998;5.862;2022-08-21T04:56:27;15.30;99.90
54431;DHT22;40342;52.998;5.862;2022-08-21T04:58:59;15.30;99.90
54431;DHT22;40342;52.998;5.862;2022-08-21T05:01:29;15.30;99.90
54431;DHT22;40342;52.998;5.862;2022-08-21T05:03:58;15.30;99.90
54431;DHT22;40342;52.998;5.862;2022-08-21T05:06:24;15.30;99.90
54431;DHT22;40342;52.998;5.862;2022-08-21T05:08:53;15.30;99.90
54431;DHT22;40342;52.998;5.862;2022-08-21T05:11:20;15.30;99.90
54431;DHT22;40342;52.998;5.862;2022-08-21T05:13:48;15.30;99.90
54431;DHT22;40342;52.998;5.862;2022-08-21T05:16:13;15.30;99.90
54431;DHT22;40342;52.998;5.862;2022-08-21T05:18:39;15.30;99.90
54431;DHT22;40342;52.998;5.862;2022-08-21T05:21:04;15.30;99.90
54431;DHT22;40342;52.998;5.862;2022-08-21T05:23:30;15.30;99.90
54431;DHT22;40342;52.998;5.862;2022-08-21T05:25:56;15.30;99.90
54431;DHT22;40342;52.998;5.862;2022-08-21T05:28:21;15.30;99.90
54431;DHT22;40342;52.998;5.862;2022-08-21T05:30:47;15.30;99.90
54431;DHT22;40342;52.998;5.862;2022-08-21T05:33:13;15.30;99.90
54431;DHT22;40342;52.998;5.862;2022-08-21T05:35:38;15.30;99.90
54431;DHT22;40342;52.998;5.862;2022-08-21T05:38:05;15.30;99.90
54431;DHT22;40342;52.998;5.862;2022-08-21T05:40:31;15.30;99.90
54431;DHT22;40342;52.998;5.862;2022-08-21T05:42:57;15.30;99.90
54431;DHT22;40342;52.998;5.862;2022-08-21T05:45:29;15.40;99.90
54431;DHT22;40342;52.998;5.862;2022-08-21T05:47:55;15.40;99.90
54431;DHT22;40342;52.998;5.862;2022-08-21T05:50:21;15.40;99.90
54431;DHT22;40342;52.998;5.862;2022-08-21T05:52:46;15.40;99.90
54431;DHT22;40342;52.998;5.862;2022-08-21T05:55:12;15.40;99.90
54431;DHT22;40342;52.998;5.862;2022-08-21T05:57:37;15.40;99.90
54431;DHT22;40342;52.998;5.862;2022-08-21T06:00:07;15.40;99.90
54431;DHT22;40342;52.998;5.862;2022-08-21T06:02:34;15.50;99.90
54431;DHT22;40342;52.998;5.862;2022-08-21T06:04:59;15.50;99.90
54431;DHT22;40342;52.998;5.862;2022-08-21T06:07:25;15.50;99.90
54431;DHT22;40342;52.998;5.862;2022-08-21T06:09:50;15.60;99.90
54431;DHT22;40342;52.998;5.862;2022-08-21T06:12:17;15.60;99.90
54431;DHT22;40342;52.998;5.862;2022-08-21T06:14:42;15.70;99.90
54431;DHT22;40342;52.998;5.862;2022-08-21T06:17:10;15.70;99.90
54431;DHT22;40342;52.998;5.862;2022-08-21T06:19:36;15.80;99.90
54431;DHT22;40342;52.998;5.862;2022-08-21T06:22:03;15.90;99.90
54431;DHT22;40342;52.998;5.862;2022-08-21T06:24:29;15.90;99.90
54431;DHT22;40342;52.998;5.862;2022-08-21T06:26:55;16.00;99.90
54431;DHT22;40342;52.998;5.862;2022-08-21T06:29:22;16.00;99.90
54431;DHT22;40342;52.998;5.862;2022-08-21T06:31:49;16.20;99.90
54431;DHT22;40342;52.998;5.862;2022-08-21T06:34:15;16.20;99.90
54431;DHT22;40342;52.998;5.862;2022-08-21T06:36:41;16.30;99.90
54431;DHT22;40342;52.998;5.862;2022-08-21T06:39:06;16.40;99.90
54431;DHT22;40342;52.998;5.862;2022-08-21T06:41:32;16.40;99.90
54431;DHT22;40342;52.998;5.862;2022-08-21T06:43:58;16.50;99.90
54431;DHT22;40342;52.998;5.862;2022-08-21T06:46:25;16.50;99.90
54431;DHT22;40342;52.998;5.862;2022-08-21T06:48:51;16.60;99.90
54431;DHT22;40342;52.998;5.862;2022-08-21T06:51:17;16.70;99.90
54431;DHT22;40342;52.998;5.862;2022-08-21T06:53:42;16.70;99.90
54431;DHT22;40342;52.998;5.862;2022-08-21T06:56:08;16.80;99.90
54431;DHT22;40342;52.998;5.862;2022-08-21T06:58:33;16.80;99.90
54431;DHT22;40342;52.998;5.862;2022-08-21T07:00:59;16.90;99.90
54431;DHT22;40342;52.998;5.862;2022-08-21T07:03:34;16.90;99.90
54431;DHT22;40342;52.998;5.862;2022-08-21T07:06:00;17.00;99.90
54431;DHT22;40342;52.998;5.862;2022-08-21T07:08:26;17.10;99.90
54431;DHT22;40342;52.998;5.862;2022-08-21T07:10:54;17.10;99.90
54431;DHT22;40342;52.998;5.862;2022-08-21T07:13:20;17.20;99.90
54431;DHT22;40342;52.998;5.862;2022-08-21T07:15:45;17.30;99.90
54431;DHT22;40342;52.998;5.862;2022-08-21T07:18:12;17.30;99.90
54431;DHT22;40342;52.998;5.862;2022-08-21T07:20:39;17.40;99.90
54431;DHT22;40342;52.998;5.862;2022-08-21T07:23:15;17.50;99.90
54431;DHT22;40342;52.998;5.862;2022-08-21T07:25:44;17.60;99.90
54431;DHT22;40342;52.998;5.862;2022-08-21T07:28:10;17.60;99.90
54431;DHT22;40342;52.998;5.862;2022-08-21T07:30:35;17.70;99.90
54431;DHT22;40342;52.998;5.862;2022-08-21T07:33:01;17.70;99.90
54431;DHT22;40342;52.998;5.862;2022-08-21T07:35:27;17.80;99.90
54431;DHT22;40342;52.998;5.862;2022-08-21T07:37:53;17.80;99.90
54431;DHT22;40342;52.998;5.862;2022-08-21T07:40:19;17.90;99.90
54431;DHT22;40342;52.998;5.862;2022-08-21T07:42:48;17.90;99.90
54431;DHT22;40342;52.998;5.862;2022-08-21T07:45:21;18.00;99.90
54431;DHT22;40342;52.998;5.862;2022-08-21T07:47:48;18.00;99.90
54431;DHT22;40342;52.998;5.862;2022-08-21T07:50:14;18.20;99.90
54431;DHT22;40342;52.998;5.862;2022-08-21T07:52:41;18.20;99.90
54431;DHT22;40342;52.998;5.862;2022-08-21T07:55:09;18.30;99.90
54431;DHT22;40342;52.998;5.862;2022-08-21T07:57:36;18.40;99.90
54431;DHT22;40342;52.998;5.862;2022-08-21T08:00:04;18.50;99.90
54431;DHT22;40342;52.998;5.862;2022-08-21T08:02:30;18.60;99.90
54431;DHT22;40342;52.998;5.862;2022-08-21T08:05:00;18.70;99.90
54431;DHT22;40342;52.998;5.862;2022-08-21T08:07:26;18.80;99.90
54431;DHT22;40342;52.998;5.862;2022-08-21T08:09:52;18.90;99.90
54431;DHT22;40342;52.998;5.862;2022-08-21T08:12:18;19.00;99.90
54431;DHT22;40342;52.998;5.862;2022-08-21T08:14:44;19.10;99.90
54431;DHT22;40342;52.998;5.862;2022-08-21T08:17:09;19.10;99.90
54431;DHT22;40342;52.998;5.862;2022-08-21T08:19:35;19.20;99.90
54431;DHT22;40342;52.998;5.862;2022-08-21T08:22:01;19.20;99.90
54431;DHT22;40342;52.998;5.862;2022-08-21T08:24:27;19.30;99.90
54431;DHT22;40342;52.998;5.862;2022-08-21T08:26:52;19.30;99.90
54431;DHT22;40342;52.998;5.862;2022-08-21T08:29:20;19.30;99.90
54431;DHT22;40342;52.998;5.862;2022-08-21T08:31:46;19.30;99.90
54431;DHT22;40342;52.998;5.862;2022-08-21T08:34:11;19.40;99.90
54431;DHT22;40342;52.998;5.862;2022-08-21T08:36:37;19.40;99.90
54431;DHT22;40342;52.998;5.862;2022-08-21T08:39:04;19.40;99.90
54431;DHT22;40342;52.998;5.862;2022-08-21T08:41:31;19.50;99.90
54431;DHT22;40342;52.998;5.862;2022-08-21T08:44:02;19.60;99.90
54431;DHT22;40342;52.998;5.862;2022-08-21T08:46:43;19.60;99.90
54431;DHT22;40342;52.998;5.862;2022-08-21T08:49:34;19.70;99.90
54431;DHT22;40342;52.998;5.862;2022-08-21T08:52:05;19.70;99.90
54431;DHT22;40342;52.998;5.862;2022-08-21T08:57:03;19.70;99.90
54431;DHT22;40342;52.998;5.862;2022-08-21T08:59:39;19.80;99.90
54431;DHT22;40342;52.998;5.862;2022-08-21T09:02:06;19.90;99.90
54431;DHT22;40342;52.998;5.862;2022-08-21T09:04:34;19.90;99.90
54431;DHT22;40342;52.998;5.862;2022-08-21T09:12:33;20.40;99.90
54431;DHT22;40342;52.998;5.862;2022-08-21T09:15:18;20.50;99.90
54431;DHT22;40342;52.998;5.862;2022-08-21T09:17:51;20.60;99.90
54431;DHT22;40342;52.998;5.862;2022-08-21T09:20:37;20.70;99.90
54431;DHT22;40342;52.998;5.862;2022-08-21T09:23:30;20.80;99.90
54431;DHT22;40342;52.998;5.862;2022-08-21T09:26:24;20.90;99.90
54431;DHT22;40342;52.998;5.862;2022-08-21T09:28:53;21.00;99.90
54431;DHT22;40342;52.998;5.862;2022-08-21T09:31:27;21.00;99.90
54431;DHT22;40342;52.998;5.862;2022-08-21T09:34:07;21.00;99.90
54431;DHT22;40342;52.998;5.862;2022-08-21T09:36:45;21.10;99.90
54431;DHT22;40342;52.998;5.862;2022-08-21T09:39:21;21.20;99.90
54431;DHT22;40342;52.998;5.862;2022-08-21T09:41:56;21.20;99.90
54431;DHT22;40342;52.998;5.862;2022-08-21T09:44:26;21.20;99.90
54431;DHT22;40342;52.998;5.862;2022-08-21T09:46:52;21.10;99.90
54431;DHT22;40342;52.998;5.862;2022-08-21T09:49:27;21.00;99.90
54431;DHT22;40342;52.998;5.862;2022-08-21T09:51:54;21.00;99.90
54431;DHT22;40342;52.998;5.862;2022-08-21T09:54:26;21.00;99.90
54431;DHT22;40342;52.998;5.862;2022-08-21T09:59:51;20.80;99.90
54431;DHT22;40342;52.998;5.862;2022-08-21T10:02:30;20.80;99.90
54431;DHT22;40342;52.998;5.862;2022-08-21T10:05:20;20.80;99.90
54431;DHT22;40342;52.998;5.862;2022-08-21T10:07:48;20.70;99.90
54431;DHT22;40342;52.998;5.862;2022-08-21T10:10:15;20.60;99.90
54431;DHT22;40342;52.998;5.862;2022-08-21T10:13:01;20.60;99.90
54431;DHT22;40342;52.998;5.862;2022-08-21T10:15:44;20.50;99.90
54431;DHT22;40342;52.998;5.862;2022-08-21T10:18:25;20.50;99.90
54431;DHT22;40342;52.998;5.862;2022-08-21T10:26:29;20.40;99.90
54431;DHT22;40342;52.998;5.862;2022-08-21T10:35:02;20.20;99.90
54431;DHT22;40342;52.998;5.862;2022-08-21T10:37:49;20.10;99.90
54431;DHT22;40342;52.998;5.862;2022-08-21T10:40:30;20.10;99.90
54431;DHT22;40342;52.998;5.862;2022-08-21T10:43:07;20.10;99.90
54431;DHT22;40342;52.998;5.862;2022-08-21T10:45:49;20.10;99.90
54431;DHT22;40342;52.998;5.862;2022-08-21T10:48:31;20.10;99.90
54431;DHT22;40342;52.998;5.862;2022-08-21T10:51:09;20.10;99.90
54431;DHT22;40342;52.998;5.862;2022-08-21T10:53:58;20.40;99.90
54431;DHT22;40342;52.998;5.862;2022-08-21T10:56:32;20.70;99.90
54431;DHT22;40342;52.998;5.862;2022-08-21T10:59:28;20.90;99.90
54431;DHT22;40342;52.998;5.862;2022-08-21T11:02:00;21.20;99.90
54431;DHT22;40342;52.998;5.862;2022-08-21T11:05:01;21.50;99.90
54431;DHT22;40342;52.998;5.862;2022-08-21T11:16:23;21.70;99.90
54431;DHT22;40342;52.998;5.862;2022-08-21T11:18:59;21.60;99.90
54431;DHT22;40342;52.998;5.862;2022-08-21T11:21:41;21.50;99.90
54431;DHT22;40342;52.998;5.862;2022-08-21T11:24:19;21.40;99.90
54431;DHT22;40342;52.998;5.862;2022-08-21T11:29:33;21.20;99.90
54431;DHT22;40342;52.998;5.862;2022-08-21T11:35:09;21.00;99.90
54431;DHT22;40342;52.998;5.862;2022-08-21T11:37:55;21.00;99.90
54431;DHT22;40342;52.998;5.862;2022-08-21T11:43:28;20.80;99.90
54431;DHT22;40342;52.998;5.862;2022-08-21T11:51:31;20.70;99.90
54431;DHT22;40342;52.998;5.862;2022-08-21T11:56:46;20.60;99.90
54431;DHT22;40342;52.998;5.862;2022-08-21T11:59:23;20.60;99.90
54431;DHT22;40342;52.998;5.862;2022-08-21T12:01:52;20.60;99.90
54431;DHT22;40342;52.998;5.862;2022-08-21T12:04:32;20.60;99.90
54431;DHT22;40342;52.998;5.862;2022-08-21T12:07:30;20.60;99.90
54431;DHT22;40342;52.998;5.862;2022-08-21T12:09:57;20.60;99.90
54431;DHT22;40342;52.998;5.862;2022-08-21T12:12:36;20.50;99.90
54431;DHT22;40342;52.998;5.862;2022-08-21T12:17:38;20.40;99.90
54431;DHT22;40342;52.998;5.862;2022-08-21T12:20:32;20.40;99.90
54431;DHT22;40342;52.998;5.862;2022-08-21T12:25:38;20.30;99.90
54431;DHT22;40342;52.998;5.862;2022-08-21T12:28:10;20.20;99.90
54431;DHT22;40342;52.998;5.862;2022-08-21T12:30:39;20.20;99.90
54431;DHT22;40342;52.998;5.862;2022-08-21T12:35:43;20.30;99.90
54431;DHT22;40342;52.998;5.862;2022-08-21T12:38:20;20.40;99.90
54431;DHT22;40342;52.998;5.862;2022-08-21T12:40:52;20.60;99.90
54431;DHT22;40342;52.998;5.862;2022-08-21T12:43:23;20.80;99.90
54431;DHT22;40342;52.998;5.862;2022-08-21T12:45:50;21.10;99.90
54431;DHT22;40342;52.998;5.862;2022-08-21T12:50:57;21.80;99.90
54431;DHT22;40342;52.998;5.862;2022-08-21T12:53:52;22.10;99.90
54431;DHT22;40342;52.998;5.862;2022-08-21T12:56:23;22.40;99.90
54431;DHT22;40342;52.998;5.862;2022-08-21T12:58:53;22.70;99.90
54431;DHT22;40342;52.998;5.862;2022-08-21T13:03:53;23.00;99.90
54431;DHT22;40342;52.998;5.862;2022-08-21T13:06:20;23.10;99.90
54431;DHT22;40342;52.998;5.862;2022-08-21T13:08:48;23.10;99.90
54431;DHT22;40342;52.998;5.862;2022-08-21T13:11:19;23.00;99.90
54431;DHT22;40342;52.998;5.862;2022-08-21T13:13:51;23.00;99.90
54431;DHT22;40342;52.998;5.862;2022-08-21T13:16:28;22.90;99.90
54431;DHT22;40342;52.998;5.862;2022-08-21T13:19:00;22.90;99.90
54431;DHT22;40342;52.998;5.862;2022-08-21T13:21:29;22.90;99.90
54431;DHT22;40342;52.998;5.862;2022-08-21T13:24:28;22.90;99.90
54431;DHT22;40342;52.998;5.862;2022-08-21T13:26:53;22.90;99.90
54431;DHT22;40342;52.998;5.862;2022-08-21T13:29:21;23.10;99.90
54431;DHT22;40342;52.998;5.862;2022-08-21T13:31:53;23.10;99.90
54431;DHT22;40342;52.998;5.862;2022-08-21T13:34:24;23.10;99.90
54431;DHT22;40342;52.998;5.862;2022-08-21T13:36:57;23.10;99.90
54431;DHT22;40342;52.998;5.862;2022-08-21T13:39:24;23.20;99.90
54431;DHT22;40342;52.998;5.862;2022-08-21T13:41:53;23.30;99.90
54431;DHT22;40342;52.998;5.862;2022-08-21T13:44:22;23.40;99.90
54431;DHT22;40342;52.998;5.862;2022-08-21T13:46:52;23.40;99.90
54431;DHT22;40342;52.998;5.862;2022-08-21T13:49:29;23.50;99.90
54431;DHT22;40342;52.998;5.862;2022-08-21T13:51:55;23.70;99.90
54431;DHT22;40342;52.998;5.862;2022-08-21T13:54:25;23.80;99.90
54431;DHT22;40342;52.998;5.862;2022-08-21T13:56:51;23.90;99.90
54431;DHT22;40342;52.998;5.862;2022-08-21T13:59:33;24.00;99.90
54431;DHT22;40342;52.998;5.862;2022-08-21T14:02:13;24.20;99.90
54431;DHT22;40342;52.998;5.862;2022-08-21T14:04:58;24.20;99.90
54431;DHT22;40342;52.998;5.862;2022-08-21T14:07:33;24.30;99.90
54431;DHT22;40342;52.998;5.862;2022-08-21T14:10:05;24.20;99.70
54431;DHT22;40342;52.998;5.862;2022-08-21T14:12:41;24.30;99.40
54431;DHT22;40342;52.998;5.862;2022-08-21T14:15:09;24.30;99.00
54431;DHT22;40342;52.998;5.862;2022-08-21T14:17:37;24.30;99.00
54431;DHT22;40342;52.998;5.862;2022-08-21T14:20:05;24.30;99.00
54431;DHT22;40342;52.998;5.862;2022-08-21T14:22:43;24.30;99.70
54431;DHT22;40342;52.998;5.862;2022-08-21T14:25:36;24.30;98.90
54431;DHT22;40342;52.998;5.862;2022-08-21T14:30:33;24.40;98.80
54431;DHT22;40342;52.998;5.862;2022-08-21T14:32:59;24.40;98.70
54431;DHT22;40342;52.998;5.862;2022-08-21T14:35:26;24.50;98.20
54431;DHT22;40342;52.998;5.862;2022-08-21T14:37:52;24.40;97.90
54431;DHT22;40342;52.998;5.862;2022-08-21T14:40:20;24.40;97.90
54431;DHT22;40342;52.998;5.862;2022-08-21T14:42:46;24.40;97.90
54431;DHT22;40342;52.998;5.862;2022-08-21T14:45:28;24.40;97.80
54431;DHT22;40342;52.998;5.862;2022-08-21T14:47:55;24.50;98.20
54431;DHT22;40342;52.998;5.862;2022-08-21T14:50:21;24.50;97.80
54431;DHT22;40342;52.998;5.862;2022-08-21T14:52:47;24.50;97.60
54431;DHT22;40342;52.998;5.862;2022-08-21T14:55:14;24.60;98.20
54431;DHT22;40342;52.998;5.862;2022-08-21T14:57:41;24.60;97.40
54431;DHT22;40342;52.998;5.862;2022-08-21T15:00:12;24.50;96.80
54431;DHT22;40342;52.998;5.862;2022-08-21T15:02:38;24.40;97.40
54431;DHT22;40342;52.998;5.862;2022-08-21T15:05:04;24.30;97.20
54431;DHT22;40342;52.998;5.862;2022-08-21T15:07:30;24.30;97.10
54431;DHT22;40342;52.998;5.862;2022-08-21T15:09:56;24.30;96.90
54431;DHT22;40342;52.998;5.862;2022-08-21T15:12:22;24.20;97.10
54431;DHT22;40342;52.998;5.862;2022-08-21T15:14:48;24.20;97.00
54431;DHT22;40342;52.998;5.862;2022-08-21T15:17:14;24.20;97.20
54431;DHT22;40342;52.998;5.862;2022-08-21T15:19:39;24.10;97.40
54431;DHT22;40342;52.998;5.862;2022-08-21T15:22:05;24.00;97.80
54431;DHT22;40342;52.998;5.862;2022-08-21T15:24:31;24.00;97.20
54431;DHT22;40342;52.998;5.862;2022-08-21T15:27:00;23.90;97.40
54431;DHT22;40342;52.998;5.862;2022-08-21T15:29:26;23.80;97.60
54431;DHT22;40342;52.998;5.862;2022-08-21T15:32:00;23.70;98.00
54431;DHT22;40342;52.998;5.862;2022-08-21T15:34:29;23.60;98.30
54431;DHT22;40342;52.998;5.862;2022-08-21T15:36:56;23.50;98.40
54431;DHT22;40342;52.998;5.862;2022-08-21T15:39:21;23.50;98.40
54431;DHT22;40342;52.998;5.862;2022-08-21T15:41:47;23.50;98.60
54431;DHT22;40342;52.998;5.862;2022-08-21T15:44:15;23.50;98.50
54431;DHT22;40342;52.998;5.862;2022-08-21T15:46:41;23.50;98.70
54431;DHT22;40342;52.998;5.862;2022-08-21T15:49:08;23.60;99.00
54431;DHT22;40342;52.998;5.862;2022-08-21T15:51:34;23.60;99.20
54431;DHT22;40342;52.998;5.862;2022-08-21T15:54:00;23.60;99.30
54431;DHT22;40342;52.998;5.862;2022-08-21T15:56:33;23.70;99.50
54431;DHT22;40342;52.998;5.862;2022-08-21T15:59:05;23.70;99.60
54431;DHT22;40342;52.998;5.862;2022-08-21T16:01:32;23.70;99.90
54431;DHT22;40342;52.998;5.862;2022-08-21T16:03:59;23.70;99.80
54431;DHT22;40342;52.998;5.862;2022-08-21T16:06:24;23.60;99.90
54431;DHT22;40342;52.998;5.862;2022-08-21T16:08:50;23.60;99.90
54431;DHT22;40342;52.998;5.862;2022-08-21T16:11:15;23.50;99.90
54431;DHT22;40342;52.998;5.862;2022-08-21T16:13:44;23.50;99.90
54431;DHT22;40342;52.998;5.862;2022-08-21T16:16:11;23.50;99.90
54431;DHT22;40342;52.998;5.862;2022-08-21T16:18:38;23.40;99.90
54431;DHT22;40342;52.998;5.862;2022-08-21T16:21:05;23.40;99.90
54431;DHT22;40342;52.998;5.862;2022-08-21T16:23:32;23.30;99.90
54431;DHT22;40342;52.998;5.862;2022-08-21T16:26:00;23.30;99.90
54431;DHT22;40342;52.998;5.862;2022-08-21T16:28:27;23.20;99.90
54431;DHT22;40342;52.998;5.862;2022-08-21T16:30:54;23.20;99.90
54431;DHT22;40342;52.998;5.862;2022-08-21T16:36:15;23.10;99.90
54431;DHT22;40342;52.998;5.862;2022-08-21T16:38:40;23.00;99.90
54431;DHT22;40342;52.998;5.862;2022-08-21T16:41:12;23.00;99.90
54431;DHT22;40342;52.998;5.862;2022-08-21T16:43:40;22.90;99.90
54431;DHT22;40342;52.998;5.862;2022-08-21T16:46:08;22.90;99.90
54431;DHT22;40342;52.998;5.862;2022-08-21T16:48:34;22.80;99.90
54431;DHT22;40342;52.998;5.862;2022-08-21T16:51:00;22.70;99.90